sensor_id;sensor_type;location;lat;lon;timestamp;P1;durP1;ratioP1;P2;durP2;ratioP2
12784;SDS011;6456;42.680;23.260;2023-10-31T00:00:00;9.73;;;5.07;;
12784;SDS011;6456;42.680;23.260;2023-10-31T00:02:30;13.33;;;4.63;;
12784;SDS011;6456;42.680;23.260;2023-10-31T00:04:57;6.87;;;4.80;;
12784;SDS011;6456;42.680;23.260;2023-10-31T00:07:24;6.90;;;5.00;;
12784;SDS011;6456;42.680;23.260;2023-10-31T00:09:51;6.53;;;4.87;;
12784;SDS011;6456;42.680;23.260;2023-10-31T00:12:19;7.70;;;4.57;;
12784;SDS011;6456;42.680;23.260;2023-10-31T00:14:46;5.43;;;4.37;;
12784;SDS011;6456;42.680;23.260;2023-10-31T00:17:14;6.93;;;4.30;;
12784;SDS011;6456;42.680;23.260;2023-10-31T00:19:43;11.37;;;4.90;;
12784;SDS011;6456;42.680;23.260;2023-10-31T00:22:10;6.87;;;4.30;;
12784;SDS011;6456;42.680;23.260;2023-10-31T00:24:37;5.03;;;4.50;;
12784;SDS011;6456;42.680;23.260;2023-10-31T00:27:04;8.90;;;4.80;;
12784;SDS011;6456;42.680;23.260;2023-10-31T00:29:31;9.77;;;5.43;;
12784;SDS011;6456;42.680;23.260;2023-10-31T00:31:58;9.33;;;5.07;;
12784;SDS011;6456;42.680;23.260;2023-10-31T00:34:26;7.57;;;4.90;;
12784;SDS011;6456;42.680;23.260;2023-10-31T00:36:53;5.03;;;4.47;;
12784;SDS011;6456;42.680;23.260;2023-10-31T00:39:21;9.97;;;5.03;;
12784;SDS011;6456;42.680;23.260;2023-10-31T00:41:48;6.10;;;4.73;;
12784;SDS011;6456;42.680;23.260;2023-10-31T00:44:15;6.90;;;4.40;;
12784;SDS011;6456;42.680;23.260;2023-10-31T00:46:41;7.67;;;4.57;;
12784;SDS011;6456;42.680;23.260;2023-10-31T00:49:08;7.80;;;5.07;;
12784;SDS011;6456;42.680;23.260;2023-10-31T00:51:38;8.97;;;4.63;;
12784;SDS011;6456;42.680;23.260;2023-10-31T00:54:05;8.47;;;4.60;;
12784;SDS011;6456;42.680;23.260;2023-10-31T00:56:32;6.40;;;4.57;;
12784;SDS011;6456;42.680;23.260;2023-10-31T00:58:59;5.80;;;4.37;;
12784;SDS011;6456;42.680;23.260;2023-10-31T01:01:26;7.23;;;4.60;;
12784;SDS011;6456;42.680;23.260;2023-10-31T01:03:53;7.43;;;4.20;;
12784;SDS011;6456;42.680;23.260;2023-10-31T01:06:20;7.43;;;4.50;;
12784;SDS011;6456;42.680;23.260;2023-10-31T01:08:48;7.47;;;4.30;;
12784;SDS011;6456;42.680;23.260;2023-10-31T01:11:15;7.40;;;4.47;;
12784;SDS011;6456;42.680;23.260;2023-10-31T01:13:42;6.57;;;4.27;;
12784;SDS011;6456;42.680;23.260;2023-10-31T01:16:09;4.50;;;3.87;;
12784;SDS011;6456;42.680;23.260;2023-10-31T01:18:36;7.47;;;4.47;;
12784;SDS011;6456;42.680;23.260;2023-10-31T01:21:03;7.33;;;4.00;;
12784;SDS011;6456;42.680;23.260;2023-10-31T01:23:30;7.60;;;4.40;;
12784;SDS011;6456;42.680;23.260;2023-10-31T01:25:58;8.60;;;5.10;;
12784;SDS011;6456;42.680;23.260;2023-10-31T01:28:24;7.83;;;4.60;;
12784;SDS011;6456;42.680;23.260;2023-10-31T01:30:51;5.77;;;4.67;;
12784;SDS011;6456;42.680;23.260;2023-10-31T01:33:18;7.07;;;4.50;;
12784;SDS011;6456;42.680;23.260;2023-10-31T01:35:45;7.10;;;4.67;;
12784;SDS011;6456;42.680;23.260;2023-10-31T01:38:12;7.43;;;4.40;;
12784;SDS011;6456;42.680;23.260;2023-10-31T01:40:39;7.90;;;4.33;;
12784;SDS011;6456;42.680;23.260;2023-10-31T01:43:07;4.53;;;3.90;;
12784;SDS011;6456;42.680;23.260;2023-10-31T01:45:34;6.13;;;4.50;;
12784;SDS011;6456;42.680;23.260;2023-10-31T01:48:01;6.13;;;4.67;;
12784;SDS011;6456;42.680;23.260;2023-10-31T01:50:29;7.87;;;4.60;;
12784;SDS011;6456;42.680;23.260;2023-10-31T01:52:58;7.53;;;4.53;;
12784;SDS011;6456;42.680;23.260;2023-10-31T01:55:28;9.03;;;4.70;;
12784;SDS011;6456;42.680;23.260;2023-10-31T01:57:56;5.90;;;4.30;;
12784;SDS011;6456;42.680;23.260;2023-10-31T02:00:24;7.43;;;4.90;;
12784;SDS011;6456;42.680;23.260;2023-10-31T02:02:51;9.53;;;4.53;;
12784;SDS011;6456;42.680;23.260;2023-10-31T02:05:20;5.60;;;4.37;;
12784;SDS011;6456;42.680;23.260;2023-10-31T02:07:47;6.43;;;4.17;;
12784;SDS011;6456;42.680;23.260;2023-10-31T02:10:14;6.47;;;4.63;;
12784;SDS011;6456;42.680;23.260;2023-10-31T02:12:40;7.63;;;4.30;;
12784;SDS011;6456;42.680;23.260;2023-10-31T02:15:08;11.20;;;4.70;;
12784;SDS011;6456;42.680;23.260;2023-10-31T02:17:38;7.97;;;4.30;;
12784;SDS011;6456;42.680;23.260;2023-10-31T02:20:05;5.97;;;4.33;;
12784;SDS011;6456;42.680;23.260;2023-10-31T02:22:34;5.63;;;4.17;;
12784;SDS011;6456;42.680;23.260;2023-10-31T02:25:01;7.40;;;4.20;;
12784;SDS011;6456;42.680;23.260;2023-10-31T02:27:28;6.70;;;4.07;;
12784;SDS011;6456;42.680;23.260;2023-10-31T02:29:54;6.50;;;3.77;;
12784;SDS011;6456;42.680;23.260;2023-10-31T02:32:21;5.97;;;4.30;;
12784;SDS011;6456;42.680;23.260;2023-10-31T02:34:49;7.60;;;4.70;;
12784;SDS011;6456;42.680;23.260;2023-10-31T02:37:16;12.07;;;4.80;;
12784;SDS011;6456;42.680;23.260;2023-10-31T02:39:44;7.40;;;4.37;;
12784;SDS011;6456;42.680;23.260;2023-10-31T02:42:11;5.57;;;4.23;;
12784;SDS011;6456;42.680;23.260;2023-10-31T02:44:38;7.57;;;4.67;;
12784;SDS011;6456;42.680;23.260;2023-10-31T02:47:04;5.27;;;3.97;;
12784;SDS011;6456;42.680;23.260;2023-10-31T02:49:31;6.43;;;4.60;;
12784;SDS011;6456;42.680;23.260;2023-10-31T02:51:58;5.60;;;4.30;;
12784;SDS011;6456;42.680;23.260;2023-10-31T02:54:25;7.27;;;4.80;;
12784;SDS011;6456;42.680;23.260;2023-10-31T02:56:53;7.33;;;4.77;;
12784;SDS011;6456;42.680;23.260;2023-10-31T02:59:20;8.80;;;4.63;;
12784;SDS011;6456;42.680;23.260;2023-10-31T03:01:56;11.30;;;4.60;;
12784;SDS011;6456;42.680;23.260;2023-10-31T03:04:23;7.13;;;4.83;;
12784;SDS011;6456;42.680;23.260;2023-10-31T03:06:50;6.13;;;4.40;;
12784;SDS011;6456;42.680;23.260;2023-10-31T03:09:17;5.87;;;5.00;;
12784;SDS011;6456;42.680;23.260;2023-10-31T03:11:45;12.20;;;7.13;;
12784;SDS011;6456;42.680;23.260;2023-10-31T03:14:13;13.47;;;8.30;;
12784;SDS011;6456;42.680;23.260;2023-10-31T03:16:40;11.30;;;6.63;;
12784;SDS011;6456;42.680;23.260;2023-10-31T03:19:07;14.07;;;9.33;;
12784;SDS011;6456;42.680;23.260;2023-10-31T03:21:34;11.30;;;7.90;;
12784;SDS011;6456;42.680;23.260;2023-10-31T03:24:01;14.17;;;8.37;;
12784;SDS011;6456;42.680;23.260;2023-10-31T03:26:28;12.27;;;7.73;;
12784;SDS011;6456;42.680;23.260;2023-10-31T03:28:55;9.93;;;7.00;;
12784;SDS011;6456;42.680;23.260;2023-10-31T03:31:24;11.07;;;7.43;;
12784;SDS011;6456;42.680;23.260;2023-10-31T03:33:51;11.30;;;6.33;;
12784;SDS011;6456;42.680;23.260;2023-10-31T03:36:18;10.23;;;6.80;;
12784;SDS011;6456;42.680;23.260;2023-10-31T03:38:45;13.43;;;8.27;;
12784;SDS011;6456;42.680;23.260;2023-10-31T03:41:12;9.90;;;7.77;;
12784;SDS011;6456;42.680;23.260;2023-10-31T03:43:39;8.90;;;7.30;;
12784;SDS011;6456;42.680;23.260;2023-10-31T03:46:06;10.80;;;6.97;;
12784;SDS011;6456;42.680;23.260;2023-10-31T03:48:34;10.77;;;7.30;;
12784;SDS011;6456;42.680;23.260;2023-10-31T03:51:01;13.23;;;8.37;;
12784;SDS011;6456;42.680;23.260;2023-10-31T03:53:28;14.70;;;9.20;;
12784;SDS011;6456;42.680;23.260;2023-10-31T03:55:55;12.37;;;8.03;;
12784;SDS011;6456;42.680;23.260;2023-10-31T03:58:22;10.60;;;7.53;;
12784;SDS011;6456;42.680;23.260;2023-10-31T04:00:49;10.87;;;7.67;;
12784;SDS011;6456;42.680;23.260;2023-10-31T04:03:16;8.57;;;6.80;;
12784;SDS011;6456;42.680;23.260;2023-10-31T04:05:44;13.37;;;7.93;;
12784;SDS011;6456;42.680;23.260;2023-10-31T04:08:11;11.10;;;8.13;;
12784;SDS011;6456;42.680;23.260;2023-10-31T04:10:38;13.63;;;8.43;;
12784;SDS011;6456;42.680;23.260;2023-10-31T04:13:04;11.53;;;8.20;;
12784;SDS011;6456;42.680;23.260;2023-10-31T04:15:31;12.03;;;7.87;;
12784;SDS011;6456;42.680;23.260;2023-10-31T04:17:59;11.67;;;7.80;;
12784;SDS011;6456;42.680;23.260;2023-10-31T04:20:26;9.67;;;7.40;;
12784;SDS011;6456;42.680;23.260;2023-10-31T04:22:54;10.97;;;7.40;;
12784;SDS011;6456;42.680;23.260;2023-10-31T04:25:21;9.73;;;7.10;;
12784;SDS011;6456;42.680;23.260;2023-10-31T04:27:48;8.23;;;6.07;;
12784;SDS011;6456;42.680;23.260;2023-10-31T04:30:15;10.40;;;6.53;;
12784;SDS011;6456;42.680;23.260;2023-10-31T04:32:42;8.70;;;6.57;;
12784;SDS011;6456;42.680;23.260;2023-10-31T04:35:09;13.50;;;6.40;;
12784;SDS011;6456;42.680;23.260;2023-10-31T04:37:36;10.80;;;6.13;;
12784;SDS011;6456;42.680;23.260;2023-10-31T04:40:04;10.53;;;6.77;;
12784;SDS011;6456;42.680;23.260;2023-10-31T04:42:32;11.70;;;7.43;;
12784;SDS011;6456;42.680;23.260;2023-10-31T04:44:59;12.43;;;7.87;;
12784;SDS011;6456;42.680;23.260;2023-10-31T04:47:26;11.37;;;6.60;;
12784;SDS011;6456;42.680;23.260;2023-10-31T04:49:53;11.83;;;7.27;;
12784;SDS011;6456;42.680;23.260;2023-10-31T04:52:20;10.13;;;7.87;;
12784;SDS011;6456;42.680;23.260;2023-10-31T04:54:48;9.80;;;6.63;;
12784;SDS011;6456;42.680;23.260;2023-10-31T04:57:16;16.33;;;8.53;;
12784;SDS011;6456;42.680;23.260;2023-10-31T04:59:43;13.63;;;8.33;;
12784;SDS011;6456;42.680;23.260;2023-10-31T05:02:10;11.60;;;7.67;;
12784;SDS011;6456;42.680;23.260;2023-10-31T05:04:37;13.10;;;8.57;;
12784;SDS011;6456;42.680;23.260;2023-10-31T05:07:05;15.20;;;9.50;;
12784;SDS011;6456;42.680;23.260;2023-10-31T05:09:32;17.67;;;8.27;;
12784;SDS011;6456;42.680;23.260;2023-10-31T05:11:59;15.77;;;8.20;;
12784;SDS011;6456;42.680;23.260;2023-10-31T05:14:27;13.07;;;9.60;;
12784;SDS011;6456;42.680;23.260;2023-10-31T05:16:54;15.47;;;8.17;;
12784;SDS011;6456;42.680;23.260;2023-10-31T05:19:21;14.93;;;7.70;;
12784;SDS011;6456;42.680;23.260;2023-10-31T05:21:48;12.80;;;7.93;;
12784;SDS011;6456;42.680;23.260;2023-10-31T05:24:15;16.17;;;8.73;;
12784;SDS011;6456;42.680;23.260;2023-10-31T05:26:42;15.17;;;9.10;;
12784;SDS011;6456;42.680;23.260;2023-10-31T05:29:09;17.13;;;8.70;;
12784;SDS011;6456;42.680;23.260;2023-10-31T05:31:37;13.97;;;10.33;;
12784;SDS011;6456;42.680;23.260;2023-10-31T05:34:04;18.33;;;9.00;;
12784;SDS011;6456;42.680;23.260;2023-10-31T05:36:32;14.60;;;8.30;;
12784;SDS011;6456;42.680;23.260;2023-10-31T05:38:59;16.30;;;8.80;;
12784;SDS011;6456;42.680;23.260;2023-10-31T05:41:25;18.73;;;10.93;;
12784;SDS011;6456;42.680;23.260;2023-10-31T05:43:52;15.23;;;9.33;;
12784;SDS011;6456;42.680;23.260;2023-10-31T05:46:19;17.80;;;9.33;;
12784;SDS011;6456;42.680;23.260;2023-10-31T05:48:47;15.60;;;8.93;;
12784;SDS011;6456;42.680;23.260;2023-10-31T05:51:16;12.87;;;8.70;;
12784;SDS011;6456;42.680;23.260;2023-10-31T05:53:44;20.17;;;8.87;;
12784;SDS011;6456;42.680;23.260;2023-10-31T05:56:12;11.67;;;8.23;;
12784;SDS011;6456;42.680;23.260;2023-10-31T05:58:42;14.33;;;9.20;;
12784;SDS011;6456;42.680;23.260;2023-10-31T06:01:09;13.97;;;9.30;;
12784;SDS011;6456;42.680;23.260;2023-10-31T06:03:36;20.47;;;9.40;;
12784;SDS011;6456;42.680;23.260;2023-10-31T06:06:05;14.67;;;8.50;;
12784;SDS011;6456;42.680;23.260;2023-10-31T06:08:33;11.30;;;9.10;;
12784;SDS011;6456;42.680;23.260;2023-10-31T06:11:00;13.93;;;10.13;;
12784;SDS011;6456;42.680;23.260;2023-10-31T06:13:27;13.60;;;10.00;;
12784;SDS011;6456;42.680;23.260;2023-10-31T06:15:56;12.80;;;9.50;;
12784;SDS011;6456;42.680;23.260;2023-10-31T06:18:23;13.77;;;9.17;;
12784;SDS011;6456;42.680;23.260;2023-10-31T06:20:50;15.73;;;9.10;;
12784;SDS011;6456;42.680;23.260;2023-10-31T06:23:18;13.77;;;8.97;;
12784;SDS011;6456;42.680;23.260;2023-10-31T06:25:45;11.67;;;8.80;;
12784;SDS011;6456;42.680;23.260;2023-10-31T06:28:12;12.60;;;8.97;;
12784;SDS011;6456;42.680;23.260;2023-10-31T06:30:39;13.37;;;8.67;;
12784;SDS011;6456;42.680;23.260;2023-10-31T06:33:06;14.10;;;9.33;;
12784;SDS011;6456;42.680;23.260;2023-10-31T06:35:37;14.70;;;9.20;;
12784;SDS011;6456;42.680;23.260;2023-10-31T06:38:03;13.77;;;9.17;;
12784;SDS011;6456;42.680;23.260;2023-10-31T06:40:31;17.13;;;9.87;;
12784;SDS011;6456;42.680;23.260;2023-10-31T06:42:58;13.37;;;9.40;;
12784;SDS011;6456;42.680;23.260;2023-10-31T06:45:25;16.00;;;9.80;;
12784;SDS011;6456;42.680;23.260;2023-10-31T06:47:52;12.80;;;10.07;;
12784;SDS011;6456;42.680;23.260;2023-10-31T06:50:19;12.90;;;9.87;;
12784;SDS011;6456;42.680;23.260;2023-10-31T06:52:46;12.43;;;9.67;;
12784;SDS011;6456;42.680;23.260;2023-10-31T06:55:13;12.97;;;9.00;;
12784;SDS011;6456;42.680;23.260;2023-10-31T06:57:41;13.97;;;9.67;;
12784;SDS011;6456;42.680;23.260;2023-10-31T07:00:10;13.47;;;9.17;;
12784;SDS011;6456;42.680;23.260;2023-10-31T07:02:37;12.97;;;9.03;;
12784;SDS011;6456;42.680;23.260;2023-10-31T07:05:04;14.10;;;9.10;;
12784;SDS011;6456;42.680;23.260;2023-10-31T07:07:31;16.10;;;10.23;;
12784;SDS011;6456;42.680;23.260;2023-10-31T07:09:58;20.20;;;10.97;;
12784;SDS011;6456;42.680;23.260;2023-10-31T07:12:25;16.40;;;10.13;;
12784;SDS011;6456;42.680;23.260;2023-10-31T07:14:53;11.33;;;9.90;;
12784;SDS011;6456;42.680;23.260;2023-10-31T07:17:20;12.87;;;9.00;;
12784;SDS011;6456;42.680;23.260;2023-10-31T07:19:46;13.73;;;9.80;;
12784;SDS011;6456;42.680;23.260;2023-10-31T07:22:13;15.77;;;11.90;;
12784;SDS011;6456;42.680;23.260;2023-10-31T07:24:40;18.23;;;12.03;;
12784;SDS011;6456;42.680;23.260;2023-10-31T07:27:07;11.63;;;8.87;;
12784;SDS011;6456;42.680;23.260;2023-10-31T07:29:34;14.93;;;8.80;;
12784;SDS011;6456;42.680;23.260;2023-10-31T07:32:03;13.30;;;9.17;;
12784;SDS011;6456;42.680;23.260;2023-10-31T07:34:29;14.73;;;9.57;;
12784;SDS011;6456;42.680;23.260;2023-10-31T07:36:56;16.07;;;9.77;;
12784;SDS011;6456;42.680;23.260;2023-10-31T07:39:23;15.23;;;10.47;;
12784;SDS011;6456;42.680;23.260;2023-10-31T07:41:50;15.63;;;11.97;;
12784;SDS011;6456;42.680;23.260;2023-10-31T07:44:16;17.43;;;11.07;;
12784;SDS011;6456;42.680;23.260;2023-10-31T07:46:43;14.47;;;10.97;;
12784;SDS011;6456;42.680;23.260;2023-10-31T07:49:11;15.80;;;9.67;;
12784;SDS011;6456;42.680;23.260;2023-10-31T07:51:38;14.97;;;8.97;;
12784;SDS011;6456;42.680;23.260;2023-10-31T07:54:07;9.47;;;8.23;;
12784;SDS011;6456;42.680;23.260;2023-10-31T07:56:35;11.97;;;8.77;;
12784;SDS011;6456;42.680;23.260;2023-10-31T07:59:04;11.83;;;8.20;;
12784;SDS011;6456;42.680;23.260;2023-10-31T08:01:32;15.83;;;9.60;;
12784;SDS011;6456;42.680;23.260;2023-10-31T08:04:00;11.03;;;9.40;;
12784;SDS011;6456;42.680;23.260;2023-10-31T08:06:28;10.47;;;7.73;;
12784;SDS011;6456;42.680;23.260;2023-10-31T08:08:55;13.87;;;8.23;;
12784;SDS011;6456;42.680;23.260;2023-10-31T08:11:22;14.67;;;8.27;;
12784;SDS011;6456;42.680;23.260;2023-10-31T08:13:48;12.47;;;8.43;;
12784;SDS011;6456;42.680;23.260;2023-10-31T08:16:16;11.60;;;8.67;;
12784;SDS011;6456;42.680;23.260;2023-10-31T08:18:44;13.10;;;8.83;;
12784;SDS011;6456;42.680;23.260;2023-10-31T08:21:12;12.87;;;8.90;;
12784;SDS011;6456;42.680;23.260;2023-10-31T08:23:41;11.70;;;8.67;;
12784;SDS011;6456;42.680;23.260;2023-10-31T08:26:09;16.17;;;8.83;;
12784;SDS011;6456;42.680;23.260;2023-10-31T08:28:37;12.47;;;8.57;;
12784;SDS011;6456;42.680;23.260;2023-10-31T08:31:04;10.80;;;8.40;;
12784;SDS011;6456;42.680;23.260;2023-10-31T08:33:31;12.57;;;8.73;;
12784;SDS011;6456;42.680;23.260;2023-10-31T08:35:58;14.73;;;8.77;;
12784;SDS011;6456;42.680;23.260;2023-10-31T08:38:26;10.10;;;8.93;;
12784;SDS011;6456;42.680;23.260;2023-10-31T08:40:55;14.47;;;8.97;;
12784;SDS011;6456;42.680;23.260;2023-10-31T08:43:22;19.07;;;9.20;;
12784;SDS011;6456;42.680;23.260;2023-10-31T08:45:49;16.90;;;9.33;;
12784;SDS011;6456;42.680;23.260;2023-10-31T08:48:16;10.60;;;9.03;;
12784;SDS011;6456;42.680;23.260;2023-10-31T08:50:42;13.90;;;8.90;;
12784;SDS011;6456;42.680;23.260;2023-10-31T08:53:09;12.17;;;8.47;;
12784;SDS011;6456;42.680;23.260;2023-10-31T08:55:37;14.33;;;8.30;;
12784;SDS011;6456;42.680;23.260;2023-10-31T08:58:05;13.33;;;8.77;;
12784;SDS011;6456;42.680;23.260;2023-10-31T09:00:31;13.33;;;8.40;;
12784;SDS011;6456;42.680;23.260;2023-10-31T09:02:58;10.70;;;7.00;;
12784;SDS011;6456;42.680;23.260;2023-10-31T09:05:25;18.10;;;7.60;;
12784;SDS011;6456;42.680;23.260;2023-10-31T09:07:52;11.90;;;6.87;;
12784;SDS011;6456;42.680;23.260;2023-10-31T09:10:19;12.93;;;5.33;;
12784;SDS011;6456;42.680;23.260;2023-10-31T09:12:45;11.63;;;6.90;;
12784;SDS011;6456;42.680;23.260;2023-10-31T09:15:14;7.60;;;5.47;;
12784;SDS011;6456;42.680;23.260;2023-10-31T09:17:41;10.70;;;5.90;;
12784;SDS011;6456;42.680;23.260;2023-10-31T09:20:09;7.67;;;5.00;;
12784;SDS011;6456;42.680;23.260;2023-10-31T09:22:36;9.07;;;5.23;;
12784;SDS011;6456;42.680;23.260;2023-10-31T09:25:03;9.83;;;4.87;;
12784;SDS011;6456;42.680;23.260;2023-10-31T09:27:30;11.40;;;5.87;;
12784;SDS011;6456;42.680;23.260;2023-10-31T09:29:57;14.17;;;6.13;;
12784;SDS011;6456;42.680;23.260;2023-10-31T09:32:25;9.23;;;5.70;;
12784;SDS011;6456;42.680;23.260;2023-10-31T09:34:52;10.40;;;5.93;;
12784;SDS011;6456;42.680;23.260;2023-10-31T09:37:19;8.47;;;5.63;;
12784;SDS011;6456;42.680;23.260;2023-10-31T09:39:46;9.17;;;5.40;;
12784;SDS011;6456;42.680;23.260;2023-10-31T09:42:13;10.03;;;5.67;;
12784;SDS011;6456;42.680;23.260;2023-10-31T09:44:40;7.23;;;5.00;;
12784;SDS011;6456;42.680;23.260;2023-10-31T09:47:08;11.23;;;5.17;;
12784;SDS011;6456;42.680;23.260;2023-10-31T09:49:37;8.73;;;5.30;;
12784;SDS011;6456;42.680;23.260;2023-10-31T09:52:04;7.70;;;5.80;;
12784;SDS011;6456;42.680;23.260;2023-10-31T09:54:32;9.60;;;5.10;;
12784;SDS011;6456;42.680;23.260;2023-10-31T09:57:04;8.87;;;4.73;;
12784;SDS011;6456;42.680;23.260;2023-10-31T09:59:31;6.40;;;4.20;;
12784;SDS011;6456;42.680;23.260;2023-10-31T10:01:58;11.87;;;5.43;;
12784;SDS011;6456;42.680;23.260;2023-10-31T10:04:27;6.10;;;4.30;;
12784;SDS011;6456;42.680;23.260;2023-10-31T10:06:59;7.67;;;4.73;;
12784;SDS011;6456;42.680;23.260;2023-10-31T10:09:27;7.20;;;4.80;;
12784;SDS011;6456;42.680;23.260;2023-10-31T10:11:54;5.63;;;4.53;;
12784;SDS011;6456;42.680;23.260;2023-10-31T10:14:23;9.33;;;4.50;;
12784;SDS011;6456;42.680;23.260;2023-10-31T10:16:50;7.30;;;4.57;;
12784;SDS011;6456;42.680;23.260;2023-10-31T10:19:17;7.63;;;4.80;;
12784;SDS011;6456;42.680;23.260;2023-10-31T10:21:46;9.53;;;4.20;;
12784;SDS011;6456;42.680;23.260;2023-10-31T10:24:14;6.10;;;4.63;;
12784;SDS011;6456;42.680;23.260;2023-10-31T10:26:43;9.80;;;4.90;;
12784;SDS011;6456;42.680;23.260;2023-10-31T10:29:10;10.33;;;4.93;;
12784;SDS011;6456;42.680;23.260;2023-10-31T10:31:37;9.23;;;4.27;;
12784;SDS011;6456;42.680;23.260;2023-10-31T10:34:04;10.07;;;4.80;;
12784;SDS011;6456;42.680;23.260;2023-10-31T10:36:32;11.10;;;4.53;;
12784;SDS011;6456;42.680;23.260;2023-10-31T10:38:59;6.47;;;3.77;;
12784;SDS011;6456;42.680;23.260;2023-10-31T10:41:30;8.47;;;4.00;;
12784;SDS011;6456;42.680;23.260;2023-10-31T10:44:04;7.70;;;4.73;;
12784;SDS011;6456;42.680;23.260;2023-10-31T10:46:32;13.23;;;4.53;;
12784;SDS011;6456;42.680;23.260;2023-10-31T10:49:03;10.33;;;4.27;;
12784;SDS011;6456;42.680;23.260;2023-10-31T10:51:35;11.03;;;5.17;;
12784;SDS011;6456;42.680;23.260;2023-10-31T10:54:11;12.53;;;5.00;;
12784;SDS011;6456;42.680;23.260;2023-10-31T10:56:45;7.63;;;4.40;;
12784;SDS011;6456;42.680;23.260;2023-10-31T10:59:18;6.40;;;4.53;;
12784;SDS011;6456;42.680;23.260;2023-10-31T11:01:47;6.77;;;4.53;;
12784;SDS011;6456;42.680;23.260;2023-10-31T11:04:16;15.13;;;5.07;;
12784;SDS011;6456;42.680;23.260;2023-10-31T11:06:43;15.20;;;5.17;;
12784;SDS011;6456;42.680;23.260;2023-10-31T11:09:11;9.30;;;5.37;;
12784;SDS011;6456;42.680;23.260;2023-10-31T11:11:39;20.60;;;6.27;;
12784;SDS011;6456;42.680;23.260;2023-10-31T11:14:16;10.83;;;4.77;;
12784;SDS011;6456;42.680;23.260;2023-10-31T11:16:47;6.83;;;4.43;;
12784;SDS011;6456;42.680;23.260;2023-10-31T11:19:17;8.87;;;4.20;;
12784;SDS011;6456;42.680;23.260;2023-10-31T11:21:54;9.47;;;4.33;;
12784;SDS011;6456;42.680;23.260;2023-10-31T11:24:21;7.87;;;3.87;;
12784;SDS011;6456;42.680;23.260;2023-10-31T11:26:52;14.97;;;5.30;;
12784;SDS011;6456;42.680;23.260;2023-10-31T11:29:21;14.83;;;4.07;;
12784;SDS011;6456;42.680;23.260;2023-10-31T11:31:48;5.17;;;3.50;;
12784;SDS011;6456;42.680;23.260;2023-10-31T11:34:15;11.13;;;4.93;;
12784;SDS011;6456;42.680;23.260;2023-10-31T11:36:44;10.10;;;3.80;;
12784;SDS011;6456;42.680;23.260;2023-10-31T11:39:12;16.73;;;4.70;;
12784;SDS011;6456;42.680;23.260;2023-10-31T11:41:40;8.47;;;3.37;;
12784;SDS011;6456;42.680;23.260;2023-10-31T11:44:06;10.18;;;7.10;;
12784;SDS011;6456;42.680;23.260;2023-10-31T11:46:35;8.38;;;3.33;;
12784;SDS011;6456;42.680;23.260;2023-10-31T11:49:01;6.53;;;2.92;;
12784;SDS011;6456;42.680;23.260;2023-10-31T11:51:30;6.10;;;2.83;;
12784;SDS011;6456;42.680;23.260;2023-10-31T11:53:57;5.82;;;2.47;;
12784;SDS011;6456;42.680;23.260;2023-10-31T11:56:26;8.73;;;3.60;;
12784;SDS011;6456;42.680;23.260;2023-10-31T11:58:56;11.48;;;3.30;;
12784;SDS011;6456;42.680;23.260;2023-10-31T12:01:23;7.05;;;3.22;;
12784;SDS011;6456;42.680;23.260;2023-10-31T12:03:52;6.85;;;3.25;;
12784;SDS011;6456;42.680;23.260;2023-10-31T12:06:18;6.40;;;2.67;;
12784;SDS011;6456;42.680;23.260;2023-10-31T12:08:46;3.40;;;2.65;;
12784;SDS011;6456;42.680;23.260;2023-10-31T12:11:15;9.68;;;3.28;;
12784;SDS011;6456;42.680;23.260;2023-10-31T12:13:51;9.45;;;2.95;;
12784;SDS011;6456;42.680;23.260;2023-10-31T12:16:19;10.80;;;3.78;;
12784;SDS011;6456;42.680;23.260;2023-10-31T12:18:55;15.40;;;3.80;;
12784;SDS011;6456;42.680;23.260;2023-10-31T12:21:35;9.15;;;4.57;;
12784;SDS011;6456;42.680;23.260;2023-10-31T12:24:04;6.95;;;3.08;;
12784;SDS011;6456;42.680;23.260;2023-10-31T12:26:31;8.82;;;2.83;;
12784;SDS011;6456;42.680;23.260;2023-10-31T12:29:09;6.93;;;2.35;;
12784;SDS011;6456;42.680;23.260;2023-10-31T12:31:39;11.02;;;3.13;;
12784;SDS011;6456;42.680;23.260;2023-10-31T12:34:10;12.25;;;3.00;;
12784;SDS011;6456;42.680;23.260;2023-10-31T12:36:37;4.60;;;2.90;;
12784;SDS011;6456;42.680;23.260;2023-10-31T12:39:05;5.80;;;2.90;;
12784;SDS011;6456;42.680;23.260;2023-10-31T12:41:35;4.68;;;3.25;;
12784;SDS011;6456;42.680;23.260;2023-10-31T12:44:03;7.13;;;3.10;;
12784;SDS011;6456;42.680;23.260;2023-10-31T12:46:31;5.97;;;3.28;;
12784;SDS011;6456;42.680;23.260;2023-10-31T12:49:00;11.23;;;3.55;;
12784;SDS011;6456;42.680;23.260;2023-10-31T12:51:28;8.63;;;3.70;;
12784;SDS011;6456;42.680;23.260;2023-10-31T12:53:55;11.90;;;3.63;;
12784;SDS011;6456;42.680;23.260;2023-10-31T12:56:34;6.13;;;3.03;;
12784;SDS011;6456;42.680;23.260;2023-10-31T12:59:04;7.00;;;3.25;;
12784;SDS011;6456;42.680;23.260;2023-10-31T13:01:32;6.18;;;2.78;;
12784;SDS011;6456;42.680;23.260;2023-10-31T13:03:59;16.65;;;5.40;;
12784;SDS011;6456;42.680;23.260;2023-10-31T13:06:26;10.68;;;4.50;;
12784;SDS011;6456;42.680;23.260;2023-10-31T13:08:56;11.05;;;3.85;;
12784;SDS011;6456;42.680;23.260;2023-10-31T13:11:23;7.40;;;3.03;;
12784;SDS011;6456;42.680;23.260;2023-10-31T13:13:51;6.50;;;3.13;;
12784;SDS011;6456;42.680;23.260;2023-10-31T13:16:19;7.72;;;3.10;;
12784;SDS011;6456;42.680;23.260;2023-10-31T13:18:46;5.13;;;2.90;;
12784;SDS011;6456;42.680;23.260;2023-10-31T13:21:15;6.60;;;3.13;;
12784;SDS011;6456;42.680;23.260;2023-10-31T13:23:42;8.90;;;3.05;;
12784;SDS011;6456;42.680;23.260;2023-10-31T13:26:12;5.53;;;2.95;;
12784;SDS011;6456;42.680;23.260;2023-10-31T13:28:39;14.60;;;3.58;;
12784;SDS011;6456;42.680;23.260;2023-10-31T13:31:06;3.78;;;3.13;;
12784;SDS011;6456;42.680;23.260;2023-10-31T13:33:33;5.55;;;3.47;;
12784;SDS011;6456;42.680;23.260;2023-10-31T13:36:00;8.43;;;3.28;;
12784;SDS011;6456;42.680;23.260;2023-10-31T13:38:27;5.05;;;3.20;;
12784;SDS011;6456;42.680;23.260;2023-10-31T13:40:53;12.13;;;3.45;;
12784;SDS011;6456;42.680;23.260;2023-10-31T13:43:22;7.78;;;3.20;;
12784;SDS011;6456;42.680;23.260;2023-10-31T13:45:49;13.73;;;4.20;;
12784;SDS011;6456;42.680;23.260;2023-10-31T13:48:19;11.23;;;3.72;;
12784;SDS011;6456;42.680;23.260;2023-10-31T13:50:46;8.30;;;3.63;;
12784;SDS011;6456;42.680;23.260;2023-10-31T13:53:13;8.75;;;3.70;;
12784;SDS011;6456;42.680;23.260;2023-10-31T13:55:40;9.88;;;3.97;;
12784;SDS011;6456;42.680;23.260;2023-10-31T13:58:07;6.45;;;3.08;;
12784;SDS011;6456;42.680;23.260;2023-10-31T14:00:36;8.60;;;3.78;;
12784;SDS011;6456;42.680;23.260;2023-10-31T14:03:03;7.97;;;4.07;;
12784;SDS011;6456;42.680;23.260;2023-10-31T14:05:30;12.57;;;5.63;;
12784;SDS011;6456;42.680;23.260;2023-10-31T14:07:57;5.00;;;3.60;;
12784;SDS011;6456;42.680;23.260;2023-10-31T14:10:25;5.57;;;3.60;;
12784;SDS011;6456;42.680;23.260;2023-10-31T14:12:51;7.15;;;3.72;;
12784;SDS011;6456;42.680;23.260;2023-10-31T14:15:23;5.82;;;3.50;;
12784;SDS011;6456;42.680;23.260;2023-10-31T14:17:54;9.30;;;4.10;;
12784;SDS011;6456;42.680;23.260;2023-10-31T14:20:22;10.50;;;4.07;;
12784;SDS011;6456;42.680;23.260;2023-10-31T14:22:49;8.10;;;4.10;;
12784;SDS011;6456;42.680;23.260;2023-10-31T14:25:16;9.60;;;4.30;;
12784;SDS011;6456;42.680;23.260;2023-10-31T14:27:43;8.32;;;4.38;;
12784;SDS011;6456;42.680;23.260;2023-10-31T14:30:10;10.68;;;4.65;;
12784;SDS011;6456;42.680;23.260;2023-10-31T14:32:38;5.93;;;4.20;;
12784;SDS011;6456;42.680;23.260;2023-10-31T14:35:08;11.68;;;4.43;;
12784;SDS011;6456;42.680;23.260;2023-10-31T14:37:35;11.57;;;4.68;;
12784;SDS011;6456;42.680;23.260;2023-10-31T14:40:02;12.00;;;5.10;;
12784;SDS011;6456;42.680;23.260;2023-10-31T14:42:31;9.90;;;5.73;;